• Join FlightAware (Why Join?)
  • Login
  • US Flag 
12:41AM EDT


 

Airport Tracker/Info


-or-


 

Live Flight TrackerFlight Track Log ✈ AWE2690 ✈ 03-Sep-2013 ✈ KCLT - KIND

Flight Track Log - Related Links

Times and Time Zones

All times are in EDT time to prevent confusion due to time zone crossing. See the AWE2690 flight status page for this flight to view local times or setup timezone preferences in your user account.

Time Position Orientation Groundspeed Altitude Reporting Facility
EDT Latitude Longitude Course Direction KTS MPH feet Rate Location/Type
02:36PM 35.2328 -80.9392 13° North 166 191 1,400  Level Atlanta Center
02:37PM 35.3092 -80.9133 15° North 255 293 3,700 1,500 Climbing Atlanta Center
02:38PM 35.3736 -80.9083 North 253 291 5,000 1,800 Climbing Atlanta Center
02:39PM 35.2715 -81.2023 68° East  Level FlightAware Approximate
02:39PM 35.4444 -80.9031 North 248 285 7,500  Level Atlanta Center
02:40PM 35.3421 -81.0745 52° Northeast  Level FlightAware Approximate
02:40PM 35.5175 -80.8978 North 278 320 10,000  Level Atlanta Center
02:41PM 35.4276 -80.9635 13° North  Level FlightAware Approximate
02:41PM 35.5986 -80.8947 North 284 327 11,200  Level Atlanta Center
02:42PM 35.6925 -80.8886 North 320 368 13,500 2,100 Climbing Atlanta Center
02:43PM 35.7883 -80.8847 North 333 383 15,500 2,100 Climbing Atlanta Center
02:44PM 35.8831 -80.9172 344° North 343 395 17,700 1,860 Climbing Atlanta Center
02:45PM 35.9719 -80.9675 335° Northwest 350 403 19,300 1,680 Climbing Atlanta Center
02:46PM 36.0592 -81.0361 328° Northwest 363 418 21,100 1,620 Climbing Atlanta Center
02:47PM 36.1342 -81.1183 318° Northwest 370 426 22,600 1,200 Climbing Atlanta Center
02:48PM 36.2036 -81.2367 306° West 375 432 23,600 900 Climbing Atlanta Center
02:49PM 36.2708 -81.3528 306° West 405 466 24,500 900 Climbing Atlanta Center
02:50PM 36.3403 -81.4742 305° West 423 487 25,400 900 Climbing Atlanta Center
02:51PM 36.4114 -81.5931 307° West 433 498 26,300 1,020 Climbing Atlanta Center
02:52PM 36.4794 -81.7169 304° West 444 511 27,500 1,080 Climbing Indianapolis Center
02:53PM 36.5511 -81.8431 305° West 445 512 28,500 1,080 Climbing Indianapolis Center
02:54PM 36.6228 -81.9694 305° West 439 505 29,700 1,140 Climbing Atlanta Center
02:55PM 36.6936 -82.0944 305° West 439 505 30,800 960 Climbing Atlanta Center
02:56PM 36.7628 -82.2183 305° West 440 506 31,800 840 Climbing Indianapolis Center
02:57PM 36.8331 -82.3419 305° West 437 503 32,700 960 Climbing Indianapolis Center
02:58PM 36.9139 -82.4856 305° West 434 499 33,800 600 Climbing Indianapolis Center
02:59PM 36.9817 -82.6075 305° West 430 495 34,000 60 Climbing Indianapolis Center
03:00PM 37.0503 -82.7311 305° West 436 502 34,000  Level Indianapolis Center
03:02PM 37.1186 -82.8539 305° West 436 502 34,000  Level Indianapolis Center
03:03PM 37.1967 -82.9964 305° West 431 496 34,000  Level Indianapolis Center
03:04PM 37.2625 -83.1181 304° West 425 489 34,000  Level Indianapolis Center
03:05PM 37.3294 -83.2406 305° West 424 488 34,000  Level Indianapolis Center
03:06PM 37.3956 -83.3603 305° West 421 484 34,000  Level Indianapolis Center
03:07PM 37.4614 -83.4825 304° West 421 484 34,000  Level Indianapolis Center
03:08PM 37.5386 -83.6264 304° West 424 488 34,000  Level Indianapolis Center
03:09PM 37.6047 -83.7486 304° West 423 487 34,000  Level Indianapolis Center
03:10PM 37.6706 -83.8714 304° West 423 487 34,000  Level Indianapolis Center
03:11PM 37.7364 -83.9942 304° West 422 486 34,000  Level Indianapolis Center
03:12PM 37.8019 -84.1200 303° West 426 490 34,000  Level Indianapolis Center
03:13PM 37.8686 -84.2433 304° West 426 490 34,000  Level Indianapolis Center
03:14PM 37.9450 -84.3892 304° West 425 489 34,000  Level Indianapolis Center
03:15PM 38.0097 -84.5139 303° West 424 488 34,000 -780 Level Indianapolis Center
03:16PM 38.0761 -84.6408 304° West 430 495 32,400 -1,740 Descending Indianapolis Center
03:17PM 38.1428 -84.7683 304° West 431 496 30,500 -1,860 Descending Indianapolis Center
03:18PM 38.2106 -84.8981 304° West 439 505 28,600 -1,260 Descending Indianapolis Center
03:19PM 38.2781 -85.0267 304° West 436 502 28,000 -300 Descending Indianapolis Center
03:20PM 38.3556 -85.1767 303° West 435 501 28,000 -600 Level Indianapolis Center
03:21PM 38.4228 -85.3092 303° West 437 503 26,800 -1,500 Descending Indianapolis Center
03:22PM 38.4878 -85.4356 303° West 427 491 24,900 -2,100 Descending Indianapolis Center
03:23PM 38.5511 -85.5633 302° West 425 489 22,500 -2,220 Descending Indianapolis Center
03:24PM 38.6344 -85.6444 323° Northwest 424 488 20,400 -2,400 Descending Indianapolis Center
03:25PM 38.7678 -85.6672 352° North 411 473 17,700 -2,160 Descending Indianapolis Center
03:26PM 38.8803 -85.6881 352° North 409 471 16,000 -1,680 Descending Indianapolis Center
03:27PM 38.9892 -85.7072 352° North 400 460 14,300 -1,020 Descending Indianapolis Center
03:28PM 39.0975 -85.7269 352° North 395 455 14,000 -780 Descending Indianapolis Center
03:29PM 39.1803 -85.8025 325° Northwest 372 428 12,800 -1,500 Descending Indianapolis Center
03:30PM 39.2431 -85.9014 309° West 360 414 10,900 -1,380 Descending Indianapolis Center
03:31PM 39.3103 -86.0086 309° West 323 372 10,000 -1,020 Descending Indianapolis Center
03:32PM 39.3581 -86.0883 308° West 293 337 8,800 -1,500 Descending Indianapolis Center
03:33PM 39.4053 -86.1653 308° West 278 320 7,000 -1,620 Descending Indianapolis Center
03:35PM 39.4514 -86.2403 309° West 270 311 5,500 -1,260 Descending Indianapolis Center
03:36PM 39.4922 -86.3075 308° West 249 287 4,400 -780 Descending Indianapolis Center
03:37PM 39.5389 -86.3686 315° West 218 251 4,000 -420 Descending Indianapolis Center
03:38PM 39.5800 -86.4033 327° Northwest 207 238 3,600 -660 Descending Indianapolis Center
03:39PM 39.6314 -86.3906 11° North 168 193 2,700 -900 Descending Indianapolis Center
03:40PM 39.6614 -86.3542 43° Northeast 155 178 1,800 -780 Descending Indianapolis Center
03:41PM 39.6889 -86.3186 45° Northeast 147 169 1,100 -540 Descending Indianapolis Center
03:42PM 39.7122 -86.2906 43° Northeast 116 133 800 -180 Descending Indianapolis Center
03:43PM 39.7161 -86.2883 24° Northeast 53 61 800  Level Indianapolis Center
03:44PM 39.7192 -86.2931 310° West 28 32 800  Level Indianapolis Center
03:45PM 39.7172 -86.2967 235° Southwest 17 20 800  Level Indianapolis Center